sensor_id;sensor_type;location;lat;lon;timestamp;pressure;altitude;pressure_sealevel;temperature;humidity
17521;BME280;8878;-33.370;-70.552;2022-08-30T00:02:01;92168.78;;;15.73;75.01
17521;BME280;8878;-33.370;-70.552;2022-08-30T00:04:29;92172.91;;;15.65;75.57
17521;BME280;8878;-33.370;-70.552;2022-08-30T00:07:00;92175.97;;;15.59;75.56
17521;BME280;8878;-33.370;-70.552;2022-08-30T00:09:32;92177.41;;;15.51;75.56
17521;BME280;8878;-33.370;-70.552;2022-08-30T00:12:03;92186.44;;;15.55;76.31
17521;BME280;8878;-33.370;-70.552;2022-08-30T00:14:33;92176.91;;;15.49;76.51
17521;BME280;8878;-33.370;-70.552;2022-08-30T00:17:02;92176.63;;;15.37;77.61
17521;BME280;8878;-33.370;-70.552;2022-08-30T00:19:32;92184.19;;;15.30;77.80
17521;BME280;8878;-33.370;-70.552;2022-08-30T00:22:01;92187.50;;;15.22;78.58
17521;BME280;8878;-33.370;-70.552;2022-08-30T00:24:31;92172.56;;;15.12;79.17
17521;BME280;8878;-33.370;-70.552;2022-08-30T00:27:02;92177.06;;;15.12;78.69
17521;BME280;8878;-33.370;-70.552;2022-08-30T00:29:32;92179.22;;;15.10;79.22
17521;BME280;8878;-33.370;-70.552;2022-08-30T00:32:01;92175.59;;;15.06;79.13
17521;BME280;8878;-33.370;-70.552;2022-08-30T00:34:31;92178.59;;;14.99;80.36
17521;BME280;8878;-33.370;-70.552;2022-08-30T00:37:00;92178.00;;;14.88;81.35
17521;BME280;8878;-33.370;-70.552;2022-08-30T00:39:30;92185.03;;;14.79;81.98
17521;BME280;8878;-33.370;-70.552;2022-08-30T00:41:59;92185.41;;;14.73;82.86
17521;BME280;8878;-33.370;-70.552;2022-08-30T00:44:30;92192.88;;;14.71;82.59
17521;BME280;8878;-33.370;-70.552;2022-08-30T00:47:01;92193.97;;;14.51;82.92
17521;BME280;8878;-33.370;-70.552;2022-08-30T00:49:30;92197.78;;;14.45;83.25
17521;BME280;8878;-33.370;-70.552;2022-08-30T00:52:02;92204.53;;;14.56;83.99
17521;BME280;8878;-33.370;-70.552;2022-08-30T00:54:33;92205.81;;;14.59;84.22
17521;BME280;8878;-33.370;-70.552;2022-08-30T00:57:05;92204.59;;;14.51;84.74
17521;BME280;8878;-33.370;-70.552;2022-08-30T00:59:38;92214.63;;;14.54;84.53
17521;BME280;8878;-33.370;-70.552;2022-08-30T01:02:10;92222.00;;;14.57;84.03
17521;BME280;8878;-33.370;-70.552;2022-08-30T01:04:42;92214.63;;;14.54;83.41
17521;BME280;8878;-33.370;-70.552;2022-08-30T01:07:12;92228.44;;;14.56;84.34
17521;BME280;8878;-33.370;-70.552;2022-08-30T01:09:41;92225.69;;;14.61;84.79
17521;BME280;8878;-33.370;-70.552;2022-08-30T01:12:11;92228.44;;;14.56;85.29
17521;BME280;8878;-33.370;-70.552;2022-08-30T01:14:42;92221.94;;;14.43;85.59
17521;BME280;8878;-33.370;-70.552;2022-08-30T01:17:14;92225.53;;;14.34;86.29
17521;BME280;8878;-33.370;-70.552;2022-08-30T01:19:49;92223.22;;;14.27;86.82
17521;BME280;8878;-33.370;-70.552;2022-08-30T01:22:25;92214.81;;;14.20;86.54
17521;BME280;8878;-33.370;-70.552;2022-08-30T01:25:00;92219.66;;;13.94;87.99
17521;BME280;8878;-33.370;-70.552;2022-08-30T01:27:31;92219.44;;;13.91;89.46
17521;BME280;8878;-33.370;-70.552;2022-08-30T01:30:04;92224.84;;;14.04;90.29
17521;BME280;8878;-33.370;-70.552;2022-08-30T01:32:39;92213.59;;;14.13;90.46
17521;BME280;8878;-33.370;-70.552;2022-08-30T01:35:10;92209.44;;;14.06;90.67
17521;BME280;8878;-33.370;-70.552;2022-08-30T01:37:40;92203.09;;;14.02;91.13
17521;BME280;8878;-33.370;-70.552;2022-08-30T01:40:13;92213.00;;;13.97;90.68
17521;BME280;8878;-33.370;-70.552;2022-08-30T01:42:43;92203.72;;;13.94;89.80
17521;BME280;8878;-33.370;-70.552;2022-08-30T01:45:13;92199.06;;;13.86;90.06
17521;BME280;8878;-33.370;-70.552;2022-08-30T01:47:43;92207.31;;;13.85;89.08
17521;BME280;8878;-33.370;-70.552;2022-08-30T01:50:12;92217.56;;;13.91;88.44
17521;BME280;8878;-33.370;-70.552;2022-08-30T01:52:42;92209.31;;;13.93;86.86
17521;BME280;8878;-33.370;-70.552;2022-08-30T01:55:13;92209.44;;;14.06;85.57
17521;BME280;8878;-33.370;-70.552;2022-08-30T01:57:42;92213.59;;;14.13;84.37
17521;BME280;8878;-33.370;-70.552;2022-08-30T02:00:13;92203.41;;;14.20;83.45
17521;BME280;8878;-33.370;-70.552;2022-08-30T02:02:43;92213.09;;;14.29;82.65
17521;BME280;8878;-33.370;-70.552;2022-08-30T02:05:14;92203.50;;;14.33;81.50
17521;BME280;8878;-33.370;-70.552;2022-08-30T02:07:45;92206.44;;;14.32;80.35
17521;BME280;8878;-33.370;-70.552;2022-08-30T02:10:16;92200.13;;;14.28;80.04
17521;BME280;8878;-33.370;-70.552;2022-08-30T02:12:48;92198.91;;;14.20;79.93
17521;BME280;8878;-33.370;-70.552;2022-08-30T02:15:20;92206.47;;;14.08;80.43
17521;BME280;8878;-33.370;-70.552;2022-08-30T02:17:50;92196.34;;;13.91;81.37
17521;BME280;8878;-33.370;-70.552;2022-08-30T02:20:19;92199.00;;;13.91;81.41
17521;BME280;8878;-33.370;-70.552;2022-08-30T02:22:50;92195.69;;;13.81;81.38
17521;BME280;8878;-33.370;-70.552;2022-08-30T02:25:21;92195.22;;;13.73;81.71
17521;BME280;8878;-33.370;-70.552;2022-08-30T02:27:50;92196.88;;;13.69;81.38
17521;BME280;8878;-33.370;-70.552;2022-08-30T02:30:21;92197.81;;;13.79;81.24
17521;BME280;8878;-33.370;-70.552;2022-08-30T02:32:50;92188.44;;;13.86;81.93
17521;BME280;8878;-33.370;-70.552;2022-08-30T02:35:19;92192.47;;;13.84;81.20
17521;BME280;8878;-33.370;-70.552;2022-08-30T02:37:49;92198.34;;;13.81;81.63
17521;BME280;8878;-33.370;-70.552;2022-08-30T02:40:20;92184.78;;;13.82;81.36
17521;BME280;8878;-33.370;-70.552;2022-08-30T02:42:50;92191.97;;;13.82;82.68
17521;BME280;8878;-33.370;-70.552;2022-08-30T02:45:21;92183.34;;;13.71;83.10
17521;BME280;8878;-33.370;-70.552;2022-08-30T02:47:51;92173.03;;;13.69;83.07
17521;BME280;8878;-33.370;-70.552;2022-08-30T02:50:23;92183.97;;;13.63;83.55
17521;BME280;8878;-33.370;-70.552;2022-08-30T02:52:53;92182.94;;;13.59;84.21
17521;BME280;8878;-33.370;-70.552;2022-08-30T02:55:24;92177.63;;;13.59;83.60
17521;BME280;8878;-33.370;-70.552;2022-08-30T02:57:55;92178.22;;;13.56;83.83
17521;BME280;8878;-33.370;-70.552;2022-08-30T03:00:24;92179.56;;;13.53;83.46
17521;BME280;8878;-33.370;-70.552;2022-08-30T03:02:54;92175.84;;;13.54;83.32
17521;BME280;8878;-33.370;-70.552;2022-08-30T03:05:23;92168.09;;;13.58;82.99
17521;BME280;8878;-33.370;-70.552;2022-08-30T03:07:53;92167.03;;;13.59;82.71
17521;BME280;8878;-33.370;-70.552;2022-08-30T03:10:24;92164.97;;;13.56;83.00
17521;BME280;8878;-33.370;-70.552;2022-08-30T03:12:54;92155.78;;;13.48;83.60
17521;BME280;8878;-33.370;-70.552;2022-08-30T03:15:24;92162.56;;;13.36;84.28
17521;BME280;8878;-33.370;-70.552;2022-08-30T03:17:54;92156.84;;;13.23;85.06
17521;BME280;8878;-33.370;-70.552;2022-08-30T03:20:25;92155.41;;;13.07;84.88
17521;BME280;8878;-33.370;-70.552;2022-08-30T03:22:56;92153.75;;;13.11;85.73
17521;BME280;8878;-33.370;-70.552;2022-08-30T03:25:27;92150.25;;;13.21;86.40
17521;BME280;8878;-33.370;-70.552;2022-08-30T03:27:57;92146.06;;;13.15;86.15
17521;BME280;8878;-33.370;-70.552;2022-08-30T03:30:28;92142.00;;;13.22;85.80
17521;BME280;8878;-33.370;-70.552;2022-08-30T03:32:57;92140.91;;;13.28;85.59
17521;BME280;8878;-33.370;-70.552;2022-08-30T03:35:28;92138.28;;;13.23;87.51
17521;BME280;8878;-33.370;-70.552;2022-08-30T03:37:58;92137.63;;;13.13;88.17
17521;BME280;8878;-33.370;-70.552;2022-08-30T03:40:29;92135.81;;;13.03;86.45
17521;BME280;8878;-33.370;-70.552;2022-08-30T03:42:58;92125.50;;;13.02;86.10
17521;BME280;8878;-33.370;-70.552;2022-08-30T03:45:28;92131.19;;;12.90;84.41
17521;BME280;8878;-33.370;-70.552;2022-08-30T03:47:58;92134.91;;;12.89;83.91
17521;BME280;8878;-33.370;-70.552;2022-08-30T03:50:29;92135.88;;;12.98;85.08
17521;BME280;8878;-33.370;-70.552;2022-08-30T03:52:59;92127.09;;;13.03;84.95
17521;BME280;8878;-33.370;-70.552;2022-08-30T03:55:30;92130.53;;;13.03;85.09
17521;BME280;8878;-33.370;-70.552;2022-08-30T03:58:00;92127.47;;;12.91;84.47
17521;BME280;8878;-33.370;-70.552;2022-08-30T04:00:31;92122.31;;;12.76;82.75
17521;BME280;8878;-33.370;-70.552;2022-08-30T04:03:01;92110.53;;;12.63;81.06
17521;BME280;8878;-33.370;-70.552;2022-08-30T04:05:30;92106.44;;;12.76;81.75
17521;BME280;8878;-33.370;-70.552;2022-08-30T04:08:00;92103.97;;;12.84;81.66
17521;BME280;8878;-33.370;-70.552;2022-08-30T04:10:32;92102.69;;;12.82;82.75
17521;BME280;8878;-33.370;-70.552;2022-08-30T04:13:01;92110.88;;;12.80;83.58
17521;BME280;8878;-33.370;-70.552;2022-08-30T04:15:31;92107.97;;;12.82;82.58
17521;BME280;8878;-33.370;-70.552;2022-08-30T04:18:00;92102.84;;;12.90;83.75
17521;BME280;8878;-33.370;-70.552;2022-08-30T04:20:30;92110.69;;;12.77;84.71
17521;BME280;8878;-33.370;-70.552;2022-08-30T04:23:00;92106.53;;;12.66;85.75
17521;BME280;8878;-33.370;-70.552;2022-08-30T04:25:34;92104.22;;;12.59;84.62
17521;BME280;8878;-33.370;-70.552;2022-08-30T04:28:04;92101.22;;;12.66;84.75
17521;BME280;8878;-33.370;-70.552;2022-08-30T04:30:38;92104.66;;;12.71;85.17
17521;BME280;8878;-33.370;-70.552;2022-08-30T04:33:08;92099.38;;;12.66;83.99
17521;BME280;8878;-33.370;-70.552;2022-08-30T04:35:40;92084.63;;;12.60;85.08
17521;BME280;8878;-33.370;-70.552;2022-08-30T04:38:12;92092.00;;;12.63;86.25
17521;BME280;8878;-33.370;-70.552;2022-08-30T04:40:45;92095.47;;;12.59;87.22
17521;BME280;8878;-33.370;-70.552;2022-08-30T04:43:15;92101.81;;;12.63;87.75
17521;BME280;8878;-33.370;-70.552;2022-08-30T04:45:45;92095.78;;;12.57;87.48
17521;BME280;8878;-33.370;-70.552;2022-08-30T04:48:15;92090.19;;;12.59;89.28
17521;BME280;8878;-33.370;-70.552;2022-08-30T04:50:44;92085.22;;;12.52;89.34
17521;BME280;8878;-33.370;-70.552;2022-08-30T04:53:14;92095.06;;;12.46;89.71
17521;BME280;8878;-33.370;-70.552;2022-08-30T04:55:46;92089.72;;;12.51;89.62
17521;BME280;8878;-33.370;-70.552;2022-08-30T04:58:15;92092.97;;;12.43;89.28
17521;BME280;8878;-33.370;-70.552;2022-08-30T05:00:45;92090.16;;;12.35;88.52
17521;BME280;8878;-33.370;-70.552;2022-08-30T05:03:15;92097.75;;;12.41;88.88
17521;BME280;8878;-33.370;-70.552;2022-08-30T05:05:47;92104.91;;;12.41;88.97
17521;BME280;8878;-33.370;-70.552;2022-08-30T05:08:18;92093.81;;;12.39;89.11
17521;BME280;8878;-33.370;-70.552;2022-08-30T05:10:50;92099.84;;;12.44;89.43
17521;BME280;8878;-33.370;-70.552;2022-08-30T05:13:20;92086.84;;;12.48;90.13
17521;BME280;8878;-33.370;-70.552;2022-08-30T05:15:50;92093.53;;;12.40;90.42
17521;BME280;8878;-33.370;-70.552;2022-08-30T05:18:19;92094.31;;;12.41;95.56
17521;BME280;8878;-33.370;-70.552;2022-08-30T05:20:58;92097.16;;;12.49;99.01
17521;BME280;8878;-33.370;-70.552;2022-08-30T05:23:30;92090.69;;;12.32;94.81
17521;BME280;8878;-33.370;-70.552;2022-08-30T05:26:04;92091.84;;;12.21;96.46
17521;BME280;8878;-33.370;-70.552;2022-08-30T05:28:34;92091.66;;;12.12;95.90
17521;BME280;8878;-33.370;-70.552;2022-08-30T05:31:12;92099.19;;;11.90;98.14
17521;BME280;8878;-33.370;-70.552;2022-08-30T05:33:42;92105.50;;;11.94;100.00
17521;BME280;8878;-33.370;-70.552;2022-08-30T05:36:15;92112.69;;;11.88;100.00
17521;BME280;8878;-33.370;-70.552;2022-08-30T05:38:46;92116.19;;;11.79;99.66
17521;BME280;8878;-33.370;-70.552;2022-08-30T05:41:20;92113.00;;;11.82;100.00
17521;BME280;8878;-33.370;-70.552;2022-08-30T05:43:52;92115.59;;;11.87;100.00
17521;BME280;8878;-33.370;-70.552;2022-08-30T05:46:22;92121.72;;;11.82;100.00
17521;BME280;8878;-33.370;-70.552;2022-08-30T05:48:53;92132.28;;;11.82;100.00
17521;BME280;8878;-33.370;-70.552;2022-08-30T05:51:24;92125.72;;;11.69;98.72
17521;BME280;8878;-33.370;-70.552;2022-08-30T05:53:55;92129.53;;;11.48;97.97
17521;BME280;8878;-33.370;-70.552;2022-08-30T05:56:32;92125.56;;;11.46;98.50
17521;BME280;8878;-33.370;-70.552;2022-08-30T05:59:03;92142.41;;;11.65;99.61
17521;BME280;8878;-33.370;-70.552;2022-08-30T06:01:36;92138.69;;;11.66;98.71
17521;BME280;8878;-33.370;-70.552;2022-08-30T06:04:07;92136.88;;;11.56;98.58
17521;BME280;8878;-33.370;-70.552;2022-08-30T06:06:40;92133.97;;;11.58;98.38
17521;BME280;8878;-33.370;-70.552;2022-08-30T06:09:10;92141.38;;;11.56;98.38
17521;BME280;8878;-33.370;-70.552;2022-08-30T06:11:44;92142.75;;;11.43;98.24
17521;BME280;8878;-33.370;-70.552;2022-08-30T06:14:14;92140.13;;;11.38;98.61
17521;BME280;8878;-33.370;-70.552;2022-08-30T06:16:43;92144.94;;;11.21;98.28
17521;BME280;8878;-33.370;-70.552;2022-08-30T06:19:14;92145.47;;;11.18;100.00
17521;BME280;8878;-33.370;-70.552;2022-08-30T06:21:46;92133.84;;;11.29;100.00
17521;BME280;8878;-33.370;-70.552;2022-08-30T06:24:16;92144.66;;;11.27;100.00
17521;BME280;8878;-33.370;-70.552;2022-08-30T06:26:47;92144.94;;;11.21;100.00
17521;BME280;8878;-33.370;-70.552;2022-08-30T06:29:21;92133.63;;;11.15;100.00
17521;BME280;8878;-33.370;-70.552;2022-08-30T06:31:50;92134.38;;;11.16;100.00
17521;BME280;8878;-33.370;-70.552;2022-08-30T06:34:22;92136.53;;;11.14;100.00
17521;BME280;8878;-33.370;-70.552;2022-08-30T06:36:52;92136.00;;;11.12;100.00
17521;BME280;8878;-33.370;-70.552;2022-08-30T06:39:22;92126.53;;;11.01;100.00
17521;BME280;8878;-33.370;-70.552;2022-08-30T06:41:53;92136.03;;;10.96;95.67
17521;BME280;8878;-33.370;-70.552;2022-08-30T06:44:23;92145.00;;;11.06;98.09
17521;BME280;8878;-33.370;-70.552;2022-08-30T06:46:53;92132.31;;;11.13;100.00
17521;BME280;8878;-33.370;-70.552;2022-08-30T06:49:22;92142.31;;;11.16;100.00
17521;BME280;8878;-33.370;-70.552;2022-08-30T06:51:53;92136.28;;;11.05;99.49
17521;BME280;8878;-33.370;-70.552;2022-08-30T06:54:22;92142.38;;;11.01;99.89
17521;BME280;8878;-33.370;-70.552;2022-08-30T06:56:53;92143.41;;;10.94;99.90
17521;BME280;8878;-33.370;-70.552;2022-08-30T06:59:22;92143.47;;;10.79;100.00
17521;BME280;8878;-33.370;-70.552;2022-08-30T07:01:52;92140.56;;;10.76;100.00
17521;BME280;8878;-33.370;-70.552;2022-08-30T07:04:21;92139.81;;;10.65;100.00
17521;BME280;8878;-33.370;-70.552;2022-08-30T07:06:51;92146.13;;;10.34;100.00
17521;BME280;8878;-33.370;-70.552;2022-08-30T07:09:20;92147.19;;;10.28;100.00
17521;BME280;8878;-33.370;-70.552;2022-08-30T07:11:50;92147.47;;;10.41;100.00
17521;BME280;8878;-33.370;-70.552;2022-08-30T07:14:22;92145.63;;;10.37;100.00
17521;BME280;8878;-33.370;-70.552;2022-08-30T07:16:52;92141.13;;;10.27;100.00
17521;BME280;8878;-33.370;-70.552;2022-08-30T07:19:22;92140.59;;;10.20;100.00
17521;BME280;8878;-33.370;-70.552;2022-08-30T07:21:50;92136.34;;;10.14;100.00
17521;BME280;8878;-33.370;-70.552;2022-08-30T07:24:20;92136.34;;;10.14;100.00
17521;BME280;8878;-33.370;-70.552;2022-08-30T07:26:50;92132.94;;;10.08;100.00
17521;BME280;8878;-33.370;-70.552;2022-08-30T07:29:22;92123.66;;;9.96;100.00
17521;BME280;8878;-33.370;-70.552;2022-08-30T07:31:52;92125.75;;;9.73;100.00
17521;BME280;8878;-33.370;-70.552;2022-08-30T07:34:21;92128.63;;;9.62;100.00
17521;BME280;8878;-33.370;-70.552;2022-08-30T07:36:52;92115.47;;;9.72;100.00
17521;BME280;8878;-33.370;-70.552;2022-08-30T07:39:23;92120.75;;;9.77;100.00
17521;BME280;8878;-33.370;-70.552;2022-08-30T07:41:52;92118.16;;;9.87;100.00
17521;BME280;8878;-33.370;-70.552;2022-08-30T07:44:23;92114.19;;;9.90;100.00
17521;BME280;8878;-33.370;-70.552;2022-08-30T07:46:53;92114.97;;;9.85;100.00
17521;BME280;8878;-33.370;-70.552;2022-08-30T07:49:23;92110.19;;;9.67;100.00
17521;BME280;8878;-33.370;-70.552;2022-08-30T07:51:52;92093.88;;;9.70;100.00
17521;BME280;8878;-33.370;-70.552;2022-08-30T07:54:22;92093.09;;;9.79;100.00
17521;BME280;8878;-33.370;-70.552;2022-08-30T07:56:53;92092.31;;;9.94;100.00
17521;BME280;8878;-33.370;-70.552;2022-08-30T07:59:25;92088.63;;;9.95;95.69
17521;BME280;8878;-33.370;-70.552;2022-08-30T08:01:54;92090.75;;;9.93;89.88
17521;BME280;8878;-33.370;-70.552;2022-08-30T08:04:23;92085.47;;;9.93;88.17
17521;BME280;8878;-33.370;-70.552;2022-08-30T08:06:52;92084.41;;;10.04;87.30
17521;BME280;8878;-33.370;-70.552;2022-08-30T08:09:22;92095.53;;;10.22;86.01
17521;BME280;8878;-33.370;-70.552;2022-08-30T08:11:51;92088.91;;;10.24;85.14
17521;BME280;8878;-33.370;-70.552;2022-08-30T08:14:23;92091.28;;;10.31;84.01
17521;BME280;8878;-33.370;-70.552;2022-08-30T08:16:54;92087.31;;;10.38;81.91
17521;BME280;8878;-33.370;-70.552;2022-08-30T08:19:25;92088.13;;;10.44;81.04
17521;BME280;8878;-33.370;-70.552;2022-08-30T08:21:55;92088.66;;;10.51;85.80
17521;BME280;8878;-33.370;-70.552;2022-08-30T08:24:27;92082.28;;;10.62;85.75
17521;BME280;8878;-33.370;-70.552;2022-08-30T08:26:57;92089.16;;;10.58;87.21
17521;BME280;8878;-33.370;-70.552;2022-08-30T08:29:28;92083.38;;;10.41;85.49
17521;BME280;8878;-33.370;-70.552;2022-08-30T08:31:57;92084.44;;;10.35;88.44
17521;BME280;8878;-33.370;-70.552;2022-08-30T08:34:27;92085.22;;;10.00;90.12
17521;BME280;8878;-33.370;-70.552;2022-08-30T08:36:56;92091.78;;;9.97;92.64
17521;BME280;8878;-33.370;-70.552;2022-08-30T08:39:26;92086.25;;;9.89;92.54
17521;BME280;8878;-33.370;-70.552;2022-08-30T08:42:01;92084.66;;;9.77;93.65
17521;BME280;8878;-33.370;-70.552;2022-08-30T08:44:43;92085.13;;;9.44;100.00
17521;BME280;8878;-33.370;-70.552;2022-08-30T08:47:24;92098.22;;;9.19;100.00
17521;BME280;8878;-33.370;-70.552;2022-08-30T08:49:58;92090.31;;;9.24;100.00
17521;BME280;8878;-33.370;-70.552;2022-08-30T08:52:40;92092.19;;;9.23;100.00
17521;BME280;8878;-33.370;-70.552;2022-08-30T08:55:31;92094.69;;;8.93;100.00
17521;BME280;8878;-33.370;-70.552;2022-08-30T08:58:01;92085.22;;;8.97;100.00
17521;BME280;8878;-33.370;-70.552;2022-08-30T09:00:32;92082.09;;;8.95;100.00
17521;BME280;8878;-33.370;-70.552;2022-08-30T09:03:03;92084.16;;;8.93;100.00
17521;BME280;8878;-33.370;-70.552;2022-08-30T09:05:35;92083.84;;;8.79;100.00
17521;BME280;8878;-33.370;-70.552;2022-08-30T09:08:08;92075.16;;;8.79;100.00
17521;BME280;8878;-33.370;-70.552;2022-08-30T09:10:41;92075.72;;;8.81;100.00
17521;BME280;8878;-33.370;-70.552;2022-08-30T09:13:15;92071.22;;;8.81;100.00
17521;BME280;8878;-33.370;-70.552;2022-08-30T09:15:46;92067.84;;;8.86;100.00
17521;BME280;8878;-33.370;-70.552;2022-08-30T09:18:16;92067.03;;;8.85;100.00
17521;BME280;8878;-33.370;-70.552;2022-08-30T09:20:47;92070.94;;;8.73;100.00
17521;BME280;8878;-33.370;-70.552;2022-08-30T09:23:25;92063.78;;;8.68;100.00
17521;BME280;8878;-33.370;-70.552;2022-08-30T09:26:00;92065.13;;;8.66;100.00
17521;BME280;8878;-33.370;-70.552;2022-08-30T09:28:31;92061.72;;;8.70;100.00
17521;BME280;8878;-33.370;-70.552;2022-08-30T09:31:19;92070.09;;;8.67;100.00
17521;BME280;8878;-33.370;-70.552;2022-08-30T09:33:54;92070.06;;;8.57;100.00
17521;BME280;8878;-33.370;-70.552;2022-08-30T09:36:26;92065.84;;;8.56;100.00
17521;BME280;8878;-33.370;-70.552;2022-08-30T09:39:00;92064.81;;;8.62;100.00
17521;BME280;8878;-33.370;-70.552;2022-08-30T09:41:37;92064.63;;;8.74;100.00
17521;BME280;8878;-33.370;-70.552;2022-08-30T09:44:10;92061.50;;;8.82;100.00
17521;BME280;8878;-33.370;-70.552;2022-08-30T09:46:49;92057.03;;;8.82;100.00
17521;BME280;8878;-33.370;-70.552;2022-08-30T09:49:29;92043.03;;;8.67;100.00
17521;BME280;8878;-33.370;-70.552;2022-08-30T09:52:05;92034.84;;;8.58;100.00
17521;BME280;8878;-33.370;-70.552;2022-08-30T09:54:42;92030.59;;;8.52;100.00
17521;BME280;8878;-33.370;-70.552;2022-08-30T09:57:23;92031.44;;;8.62;100.00
17521;BME280;8878;-33.370;-70.552;2022-08-30T10:00:01;92025.44;;;8.72;100.00
17521;BME280;8878;-33.370;-70.552;2022-08-30T10:02:58;92036.81;;;8.88;100.00
17521;BME280;8878;-33.370;-70.552;2022-08-30T10:05:40;92023.41;;;8.94;100.00
17521;BME280;8878;-33.370;-70.552;2022-08-30T10:08:28;92023.66;;;8.93;100.00
17521;BME280;8878;-33.370;-70.552;2022-08-30T10:11:04;92017.91;;;9.01;100.00
17521;BME280;8878;-33.370;-70.552;2022-08-30T10:13:49;92020.53;;;9.06;100.00
17521;BME280;8878;-33.370;-70.552;2022-08-30T10:16:33;92015.78;;;8.98;100.00
17521;BME280;8878;-33.370;-70.552;2022-08-30T10:19:17;92020.25;;;9.02;100.00
17521;BME280;8878;-33.370;-70.552;2022-08-30T10:22:00;92014.22;;;9.12;100.00
17521;BME280;8878;-33.370;-70.552;2022-08-30T10:24:34;92007.94;;;9.13;100.00
17521;BME280;8878;-33.370;-70.552;2022-08-30T10:27:10;92009.47;;;9.04;100.00
17521;BME280;8878;-33.370;-70.552;2022-08-30T10:29:47;92022.88;;;9.02;100.00
17521;BME280;8878;-33.370;-70.552;2022-08-30T10:32:25;92039.00;;;9.21;100.00
17521;BME280;8878;-33.370;-70.552;2022-08-30T10:35:04;92049.13;;;8.82;100.00
17521;BME280;8878;-33.370;-70.552;2022-08-30T10:37:38;92053.47;;;8.51;100.00
17521;BME280;8878;-33.370;-70.552;2022-08-30T10:40:12;92058.66;;;8.41;100.00
17521;BME280;8878;-33.370;-70.552;2022-08-30T10:43:03;92068.47;;;8.19;100.00
17521;BME280;8878;-33.370;-70.552;2022-08-30T10:45:37;92078.66;;;8.10;100.00
17521;BME280;8878;-33.370;-70.552;2022-08-30T10:48:15;92087.63;;;8.14;100.00
17521;BME280;8878;-33.370;-70.552;2022-08-30T10:50:50;92087.28;;;8.01;100.00
17521;BME280;8878;-33.370;-70.552;2022-08-30T10:53:27;92096.28;;;8.10;100.00
17521;BME280;8878;-33.370;-70.552;2022-08-30T10:56:02;92100.31;;;8.22;100.00
17521;BME280;8878;-33.370;-70.552;2022-08-30T10:58:33;92099.06;;;8.30;100.00
17521;BME280;8878;-33.370;-70.552;2022-08-30T11:01:19;92096.66;;;8.29;100.00
17521;BME280;8878;-33.370;-70.552;2022-08-30T11:04:12;92098.81;;;8.32;100.00
17521;BME280;8878;-33.370;-70.552;2022-08-30T11:06:55;92110.00;;;8.17;100.00
17521;BME280;8878;-33.370;-70.552;2022-08-30T11:09:51;92105.69;;;8.06;100.00
17521;BME280;8878;-33.370;-70.552;2022-08-30T11:12:32;92099.69;;;8.10;100.00
17521;BME280;8878;-33.370;-70.552;2022-08-30T11:15:16;92100.00;;;8.19;100.00
17521;BME280;8878;-33.370;-70.552;2022-08-30T11:17:53;92104.63;;;8.02;100.00
17521;BME280;8878;-33.370;-70.552;2022-08-30T11:20:37;92097.22;;;7.99;100.00
17521;BME280;8878;-33.370;-70.552;2022-08-30T11:23:30;92090.69;;;8.01;100.00
17521;BME280;8878;-33.370;-70.552;2022-08-30T11:26:02;92096.88;;;8.17;100.00
17521;BME280;8878;-33.370;-70.552;2022-08-30T11:29:04;92087.56;;;8.41;100.00
17521;BME280;8878;-33.370;-70.552;2022-08-30T11:31:37;92092.03;;;8.41;100.00
17521;BME280;8878;-33.370;-70.552;2022-08-30T11:34:07;92089.66;;;8.39;100.00
17521;BME280;8878;-33.370;-70.552;2022-08-30T11:37:07;92098.63;;;8.38;100.00
17521;BME280;8878;-33.370;-70.552;2022-08-30T11:39:56;92097.03;;;8.37;100.00
17521;BME280;8878;-33.370;-70.552;2022-08-30T11:42:31;92103.06;;;8.38;100.00
17521;BME280;8878;-33.370;-70.552;2022-08-30T11:48:36;92115.25;;;8.54;100.00
17521;BME280;8878;-33.370;-70.552;2022-08-30T11:51:00;92118.78;;;8.75;100.00
17521;BME280;8878;-33.370;-70.552;2022-08-30T11:53:35;92121.50;;;8.90;100.00
17521;BME280;8878;-33.370;-70.552;2022-08-30T11:56:13;92130.97;;;8.91;100.00
17521;BME280;8878;-33.370;-70.552;2022-08-30T11:58:51;92139.50;;;9.08;100.00
17521;BME280;8878;-33.370;-70.552;2022-08-30T12:01:34;92147.34;;;9.03;100.00
17521;BME280;8878;-33.370;-70.552;2022-08-30T12:04:08;92154.97;;;8.94;100.00
17521;BME280;8878;-33.370;-70.552;2022-08-30T12:06:52;92163.00;;;8.73;100.00
17521;BME280;8878;-33.370;-70.552;2022-08-30T12:13:03;92167.50;;;8.13;100.00
17521;BME280;8878;-33.370;-70.552;2022-08-30T12:15:57;92181.47;;;8.19;100.00
17521;BME280;8878;-33.370;-70.552;2022-08-30T12:18:38;92186.97;;;8.44;100.00
17521;BME280;8878;-33.370;-70.552;2022-08-30T12:21:25;92190.19;;;8.51;100.00
17521;BME280;8878;-33.370;-70.552;2022-08-30T12:24:01;92197.63;;;8.59;100.00
17521;BME280;8878;-33.370;-70.552;2022-08-30T12:26:35;92203.25;;;8.73;100.00
17521;BME280;8878;-33.370;-70.552;2022-08-30T12:29:14;92204.78;;;8.74;100.00
17521;BME280;8878;-33.370;-70.552;2022-08-30T12:31:48;92200.44;;;8.90;100.00
17521;BME280;8878;-33.370;-70.552;2022-08-30T12:34:24;92205.78;;;9.05;100.00
17521;BME280;8878;-33.370;-70.552;2022-08-30T12:36:58;92213.22;;;9.13;100.00
17521;BME280;8878;-33.370;-70.552;2022-08-30T12:39:31;92218.19;;;9.10;100.00
17521;BME280;8878;-33.370;-70.552;2022-08-30T12:42:11;92214.56;;;9.16;100.00
17521;BME280;8878;-33.370;-70.552;2022-08-30T12:44:43;92223.25;;;9.16;100.00
17521;BME280;8878;-33.370;-70.552;2022-08-30T12:47:15;92219.84;;;9.26;100.00
17521;BME280;8878;-33.370;-70.552;2022-08-30T12:49:45;92211.69;;;9.22;100.00
17521;BME280;8878;-33.370;-70.552;2022-08-30T12:52:18;92215.16;;;9.33;100.00
17521;BME280;8878;-33.370;-70.552;2022-08-30T12:54:49;92210.97;;;9.37;100.00
17521;BME280;8878;-33.370;-70.552;2022-08-30T12:57:39;92220.97;;;9.35;100.00
17521;BME280;8878;-33.370;-70.552;2022-08-30T13:00:23;92223.59;;;9.35;100.00
17521;BME280;8878;-33.370;-70.552;2022-08-30T13:02:53;92222.00;;;9.34;100.00
17521;BME280;8878;-33.370;-70.552;2022-08-30T13:05:35;92226.59;;;9.59;100.00
17521;BME280;8878;-33.370;-70.552;2022-08-30T13:08:16;92221.38;;;9.74;100.00
17521;BME280;8878;-33.370;-70.552;2022-08-30T13:10:52;92228.47;;;9.68;100.00
17521;BME280;8878;-33.370;-70.552;2022-08-30T13:13:34;92229.03;;;9.80;100.00
17521;BME280;8878;-33.370;-70.552;2022-08-30T13:16:11;92226.94;;;9.77;100.00
17521;BME280;8878;-33.370;-70.552;2022-08-30T13:18:49;92238.53;;;9.81;100.00